Terminal Aerodrome Forecast
Issued by NWS

Home | Current Version | Previous Version | Text Only | Print | Product List | Glossary On
Versions: 1 2 3 4 5 6 7 8 9 10 11 12 13 14 15 16 17 18
896
FTUS44 KCRP 020233 AAA
TAFALI
TAF AMD
KALI 020233Z 0203/0224 07011KT 6SM BR BKN028
      TEMPO 0204/0208 2SM TSRA OVC012CB
     FM021000 02012KT 5SM -SHRA OVC010
     FM021400 01014KT P6SM VCSH BKN015 OVC025 PROB30 0214/0220 -TSRA
      BKN025CB=

USA.gov is the U.S. government's official web portal to all federal, state and local government web resources and services.